sensor_id;sensor_type;location;lat;lon;timestamp;temperature;humidity
35258;DHT22;21385;50.878;8.050;2023-08-20T00:01:06;23.00;99.90
35258;DHT22;21385;50.878;8.050;2023-08-20T00:03:33;23.00;99.90
35258;DHT22;21385;50.878;8.050;2023-08-20T00:05:59;22.90;99.90
35258;DHT22;21385;50.878;8.050;2023-08-20T00:08:25;23.00;99.90
35258;DHT22;21385;50.878;8.050;2023-08-20T00:10:50;22.90;99.90
35258;DHT22;21385;50.878;8.050;2023-08-20T00:13:16;22.90;99.90
35258;DHT22;21385;50.878;8.050;2023-08-20T00:15:42;22.90;99.90
35258;DHT22;21385;50.878;8.050;2023-08-20T00:18:08;23.00;99.90
35258;DHT22;21385;50.878;8.050;2023-08-20T00:20:34;22.90;99.90
35258;DHT22;21385;50.878;8.050;2023-08-20T00:23:00;22.80;99.90
35258;DHT22;21385;50.878;8.050;2023-08-20T00:25:26;22.80;99.90
35258;DHT22;21385;50.878;8.050;2023-08-20T00:27:52;22.70;99.90
35258;DHT22;21385;50.878;8.050;2023-08-20T00:30:17;22.70;99.90
35258;DHT22;21385;50.878;8.050;2023-08-20T00:32:43;22.60;99.90
35258;DHT22;21385;50.878;8.050;2023-08-20T00:35:09;22.60;99.90
35258;DHT22;21385;50.878;8.050;2023-08-20T00:37:34;22.50;99.90
35258;DHT22;21385;50.878;8.050;2023-08-20T00:40:00;22.50;99.90
35258;DHT22;21385;50.878;8.050;2023-08-20T00:42:26;22.40;99.90
35258;DHT22;21385;50.878;8.050;2023-08-20T00:44:52;22.40;99.90
35258;DHT22;21385;50.878;8.050;2023-08-20T00:47:18;22.40;99.90
35258;DHT22;21385;50.878;8.050;2023-08-20T00:49:45;22.40;99.90
35258;DHT22;21385;50.878;8.050;2023-08-20T00:52:12;22.40;99.90
35258;DHT22;21385;50.878;8.050;2023-08-20T00:54:45;22.50;99.90
35258;DHT22;21385;50.878;8.050;2023-08-20T00:57:13;22.40;99.90
35258;DHT22;21385;50.878;8.050;2023-08-20T00:59:40;22.30;99.90
35258;DHT22;21385;50.878;8.050;2023-08-20T01:02:06;22.30;99.90
35258;DHT22;21385;50.878;8.050;2023-08-20T01:04:32;22.20;99.90
35258;DHT22;21385;50.878;8.050;2023-08-20T01:07:28;22.20;99.90
35258;DHT22;21385;50.878;8.050;2023-08-20T01:10:11;22.20;99.90
35258;DHT22;21385;50.878;8.050;2023-08-20T01:12:39;22.20;99.90
35258;DHT22;21385;50.878;8.050;2023-08-20T01:15:05;22.10;99.90
35258;DHT22;21385;50.878;8.050;2023-08-20T01:17:30;22.00;99.90
35258;DHT22;21385;50.878;8.050;2023-08-20T01:19:56;22.00;99.90
35258;DHT22;21385;50.878;8.050;2023-08-20T01:30:27;22.00;99.90
35258;DHT22;21385;50.878;8.050;2023-08-20T01:32:54;22.00;99.90
35258;DHT22;21385;50.878;8.050;2023-08-20T01:35:19;21.90;99.90
35258;DHT22;21385;50.878;8.050;2023-08-20T01:37:45;21.90;99.90
35258;DHT22;21385;50.878;8.050;2023-08-20T01:40:11;21.90;99.90
35258;DHT22;21385;50.878;8.050;2023-08-20T01:42:38;21.80;99.90
35258;DHT22;21385;50.878;8.050;2023-08-20T01:45:05;21.80;99.90
35258;DHT22;21385;50.878;8.050;2023-08-20T01:47:31;21.70;99.90
35258;DHT22;21385;50.878;8.050;2023-08-20T01:49:56;21.70;99.90
35258;DHT22;21385;50.878;8.050;2023-08-20T01:52:22;21.70;99.90
35258;DHT22;21385;50.878;8.050;2023-08-20T01:54:51;21.70;99.90
35258;DHT22;21385;50.878;8.050;2023-08-20T01:57:17;21.70;99.90
35258;DHT22;21385;50.878;8.050;2023-08-20T01:59:43;21.70;99.90
35258;DHT22;21385;50.878;8.050;2023-08-20T02:02:08;21.70;99.90
35258;DHT22;21385;50.878;8.050;2023-08-20T02:04:34;21.60;99.90
35258;DHT22;21385;50.878;8.050;2023-08-20T02:07:00;21.60;99.90
35258;DHT22;21385;50.878;8.050;2023-08-20T02:09:25;21.60;99.90
35258;DHT22;21385;50.878;8.050;2023-08-20T02:11:51;21.50;99.90
35258;DHT22;21385;50.878;8.050;2023-08-20T02:14:17;21.60;99.90
35258;DHT22;21385;50.878;8.050;2023-08-20T02:16:43;21.60;99.90
35258;DHT22;21385;50.878;8.050;2023-08-20T02:19:09;21.70;99.90
35258;DHT22;21385;50.878;8.050;2023-08-20T02:21:35;21.70;99.90
35258;DHT22;21385;50.878;8.050;2023-08-20T02:24:01;21.70;99.90
35258;DHT22;21385;50.878;8.050;2023-08-20T02:26:27;21.70;99.90
35258;DHT22;21385;50.878;8.050;2023-08-20T02:28:52;21.70;99.90
35258;DHT22;21385;50.878;8.050;2023-08-20T02:31:18;21.70;99.90
35258;DHT22;21385;50.878;8.050;2023-08-20T02:33:44;21.70;99.90
35258;DHT22;21385;50.878;8.050;2023-08-20T02:36:09;21.60;99.90
35258;DHT22;21385;50.878;8.050;2023-08-20T02:38:35;21.50;99.90
35258;DHT22;21385;50.878;8.050;2023-08-20T02:41:01;21.40;99.90
35258;DHT22;21385;50.878;8.050;2023-08-20T02:43:28;21.30;99.90
35258;DHT22;21385;50.878;8.050;2023-08-20T02:45:54;21.30;99.90
35258;DHT22;21385;50.878;8.050;2023-08-20T02:50:46;21.10;99.90
35258;DHT22;21385;50.878;8.050;2023-08-20T02:53:11;21.10;99.90
35258;DHT22;21385;50.878;8.050;2023-08-20T02:55:37;21.00;99.90
35258;DHT22;21385;50.878;8.050;2023-08-20T02:58:03;21.10;99.90
35258;DHT22;21385;50.878;8.050;2023-08-20T03:00:30;21.10;99.90
35258;DHT22;21385;50.878;8.050;2023-08-20T03:02:55;21.10;99.90
35258;DHT22;21385;50.878;8.050;2023-08-20T03:05:22;21.10;99.90
35258;DHT22;21385;50.878;8.050;2023-08-20T03:07:47;21.00;99.90
35258;DHT22;21385;50.878;8.050;2023-08-20T03:10:13;21.00;99.90
35258;DHT22;21385;50.878;8.050;2023-08-20T03:12:38;21.00;99.90
35258;DHT22;21385;50.878;8.050;2023-08-20T03:15:04;20.90;99.90
35258;DHT22;21385;50.878;8.050;2023-08-20T03:17:30;21.00;99.90
35258;DHT22;21385;50.878;8.050;2023-08-20T03:19:57;20.90;99.90
35258;DHT22;21385;50.878;8.050;2023-08-20T03:22:23;20.90;99.90
35258;DHT22;21385;50.878;8.050;2023-08-20T03:24:49;20.90;99.90
35258;DHT22;21385;50.878;8.050;2023-08-20T03:27:16;20.90;99.90
35258;DHT22;21385;50.878;8.050;2023-08-20T03:29:41;20.90;99.90
35258;DHT22;21385;50.878;8.050;2023-08-20T03:32:07;20.90;99.90
35258;DHT22;21385;50.878;8.050;2023-08-20T03:34:32;20.80;99.90
35258;DHT22;21385;50.878;8.050;2023-08-20T03:36:58;20.80;99.90
35258;DHT22;21385;50.878;8.050;2023-08-20T03:39:24;20.80;99.90
35258;DHT22;21385;50.878;8.050;2023-08-20T03:41:53;20.80;99.90
35258;DHT22;21385;50.878;8.050;2023-08-20T03:44:19;20.80;99.90
35258;DHT22;21385;50.878;8.050;2023-08-20T03:46:44;20.70;99.90
35258;DHT22;21385;50.878;8.050;2023-08-20T03:49:10;20.70;99.90
35258;DHT22;21385;50.878;8.050;2023-08-20T03:51:36;20.80;99.90
35258;DHT22;21385;50.878;8.050;2023-08-20T03:54:02;20.70;99.90
35258;DHT22;21385;50.878;8.050;2023-08-20T03:56:28;20.70;99.90
35258;DHT22;21385;50.878;8.050;2023-08-20T03:58:53;20.70;99.90
35258;DHT22;21385;50.878;8.050;2023-08-20T04:01:19;20.60;99.90
35258;DHT22;21385;50.878;8.050;2023-08-20T04:03:48;20.70;99.90
35258;DHT22;21385;50.878;8.050;2023-08-20T04:06:14;20.70;99.90
35258;DHT22;21385;50.878;8.050;2023-08-20T04:08:39;20.70;99.90
35258;DHT22;21385;50.878;8.050;2023-08-20T04:11:05;20.70;99.90
35258;DHT22;21385;50.878;8.050;2023-08-20T04:13:31;20.70;99.90
35258;DHT22;21385;50.878;8.050;2023-08-20T04:15:57;20.80;99.90
35258;DHT22;21385;50.878;8.050;2023-08-20T04:18:22;20.80;99.90
35258;DHT22;21385;50.878;8.050;2023-08-20T04:20:52;20.70;99.90
35258;DHT22;21385;50.878;8.050;2023-08-20T04:23:18;20.70;99.90
35258;DHT22;21385;50.878;8.050;2023-08-20T04:25:44;20.70;99.90
35258;DHT22;21385;50.878;8.050;2023-08-20T04:28:11;20.70;99.90
35258;DHT22;21385;50.878;8.050;2023-08-20T04:30:37;20.70;99.90
35258;DHT22;21385;50.878;8.050;2023-08-20T04:33:03;20.60;99.90
35258;DHT22;21385;50.878;8.050;2023-08-20T04:35:28;20.60;99.90
35258;DHT22;21385;50.878;8.050;2023-08-20T04:37:54;20.60;99.90
35258;DHT22;21385;50.878;8.050;2023-08-20T04:40:19;20.60;99.90
35258;DHT22;21385;50.878;8.050;2023-08-20T04:42:45;20.60;99.90
35258;DHT22;21385;50.878;8.050;2023-08-20T04:45:11;20.60;99.90
35258;DHT22;21385;50.878;8.050;2023-08-20T04:47:37;20.60;99.90
35258;DHT22;21385;50.878;8.050;2023-08-20T04:50:03;20.60;99.90
35258;DHT22;21385;50.878;8.050;2023-08-20T04:52:30;20.60;99.90
35258;DHT22;21385;50.878;8.050;2023-08-20T04:54:55;20.50;99.90
35258;DHT22;21385;50.878;8.050;2023-08-20T04:57:21;20.50;99.90
35258;DHT22;21385;50.878;8.050;2023-08-20T04:59:47;20.50;99.90
35258;DHT22;21385;50.878;8.050;2023-08-20T05:46:02;21.00;99.90
35258;DHT22;21385;50.878;8.050;2023-08-20T05:48:28;21.00;99.90
35258;DHT22;21385;50.878;8.050;2023-08-20T05:50:53;21.00;99.90
35258;DHT22;21385;50.878;8.050;2023-08-20T05:53:19;20.90;99.90
35258;DHT22;21385;50.878;8.050;2023-08-20T05:55:45;21.00;99.90
35258;DHT22;21385;50.878;8.050;2023-08-20T05:58:11;21.00;99.90
35258;DHT22;21385;50.878;8.050;2023-08-20T06:00:36;21.10;99.90
35258;DHT22;21385;50.878;8.050;2023-08-20T06:03:02;21.10;99.90
35258;DHT22;21385;50.878;8.050;2023-08-20T06:05:28;21.00;99.90
35258;DHT22;21385;50.878;8.050;2023-08-20T06:07:53;21.00;99.90
35258;DHT22;21385;50.878;8.050;2023-08-20T06:10:19;21.00;99.90
35258;DHT22;21385;50.878;8.050;2023-08-20T06:12:44;21.00;99.90
35258;DHT22;21385;50.878;8.050;2023-08-20T06:15:10;21.00;99.90
35258;DHT22;21385;50.878;8.050;2023-08-20T06:17:36;21.00;99.90
35258;DHT22;21385;50.878;8.050;2023-08-20T06:20:01;21.00;99.90
35258;DHT22;21385;50.878;8.050;2023-08-20T06:22:30;21.10;99.90
35258;DHT22;21385;50.878;8.050;2023-08-20T06:24:57;21.20;99.90
35258;DHT22;21385;50.878;8.050;2023-08-20T06:27:23;21.20;99.90
35258;DHT22;21385;50.878;8.050;2023-08-20T06:29:48;21.30;99.90
35258;DHT22;21385;50.878;8.050;2023-08-20T06:32:14;21.40;99.90
35258;DHT22;21385;50.878;8.050;2023-08-20T06:34:40;21.40;99.90
35258;DHT22;21385;50.878;8.050;2023-08-20T06:37:05;21.40;99.90
35258;DHT22;21385;50.878;8.050;2023-08-20T06:39:31;21.40;99.90
35258;DHT22;21385;50.878;8.050;2023-08-20T06:41:56;21.40;99.90
35258;DHT22;21385;50.878;8.050;2023-08-20T06:44:22;21.30;99.90
35258;DHT22;21385;50.878;8.050;2023-08-20T06:46:47;21.30;99.90
35258;DHT22;21385;50.878;8.050;2023-08-20T06:49:13;21.40;99.90
35258;DHT22;21385;50.878;8.050;2023-08-20T06:51:38;21.40;99.90
35258;DHT22;21385;50.878;8.050;2023-08-20T06:54:04;21.50;99.90
35258;DHT22;21385;50.878;8.050;2023-08-20T06:56:32;21.50;99.90
35258;DHT22;21385;50.878;8.050;2023-08-20T06:58:57;21.60;99.90
35258;DHT22;21385;50.878;8.050;2023-08-20T07:01:23;21.60;99.90
35258;DHT22;21385;50.878;8.050;2023-08-20T07:03:48;21.60;99.90
35258;DHT22;21385;50.878;8.050;2023-08-20T07:06:14;21.70;99.90
35258;DHT22;21385;50.878;8.050;2023-08-20T07:08:41;21.70;99.90
35258;DHT22;21385;50.878;8.050;2023-08-20T07:11:07;21.80;99.90
35258;DHT22;21385;50.878;8.050;2023-08-20T07:13:33;21.80;99.90
35258;DHT22;21385;50.878;8.050;2023-08-20T07:15:59;21.90;99.90
35258;DHT22;21385;50.878;8.050;2023-08-20T07:18:25;21.90;99.90
35258;DHT22;21385;50.878;8.050;2023-08-20T07:20:51;22.00;99.90
35258;DHT22;21385;50.878;8.050;2023-08-20T07:23:17;22.10;99.90
35258;DHT22;21385;50.878;8.050;2023-08-20T07:25:43;22.20;99.90
35258;DHT22;21385;50.878;8.050;2023-08-20T07:28:10;22.20;99.90
35258;DHT22;21385;50.878;8.050;2023-08-20T07:30:36;22.30;99.90
35258;DHT22;21385;50.878;8.050;2023-08-20T07:33:02;22.50;99.90
35258;DHT22;21385;50.878;8.050;2023-08-20T07:35:28;22.50;99.90
35258;DHT22;21385;50.878;8.050;2023-08-20T07:37:53;22.50;99.90
35258;DHT22;21385;50.878;8.050;2023-08-20T07:40:19;22.60;99.90
35258;DHT22;21385;50.878;8.050;2023-08-20T07:42:45;22.70;99.90
35258;DHT22;21385;50.878;8.050;2023-08-20T07:45:11;22.80;99.90
35258;DHT22;21385;50.878;8.050;2023-08-20T07:47:37;22.90;99.90
35258;DHT22;21385;50.878;8.050;2023-08-20T07:50:06;23.00;99.90
35258;DHT22;21385;50.878;8.050;2023-08-20T07:52:32;23.10;99.90
35258;DHT22;21385;50.878;8.050;2023-08-20T07:54:58;23.20;99.90
35258;DHT22;21385;50.878;8.050;2023-08-20T07:57:23;23.20;99.90
35258;DHT22;21385;50.878;8.050;2023-08-20T07:59:52;23.30;99.90
35258;DHT22;21385;50.878;8.050;2023-08-20T08:02:18;23.40;99.90
35258;DHT22;21385;50.878;8.050;2023-08-20T08:04:44;23.50;99.90
35258;DHT22;21385;50.878;8.050;2023-08-20T08:07:10;23.60;99.90
35258;DHT22;21385;50.878;8.050;2023-08-20T08:09:36;23.70;99.90
35258;DHT22;21385;50.878;8.050;2023-08-20T08:12:02;23.80;99.90
35258;DHT22;21385;50.878;8.050;2023-08-20T08:14:28;23.90;99.90
35258;DHT22;21385;50.878;8.050;2023-08-20T08:16:55;23.90;99.90
35258;DHT22;21385;50.878;8.050;2023-08-20T08:19:21;24.00;99.90
35258;DHT22;21385;50.878;8.050;2023-08-20T08:21:47;24.00;99.90
35258;DHT22;21385;50.878;8.050;2023-08-20T08:24:13;24.10;99.90
35258;DHT22;21385;50.878;8.050;2023-08-20T08:26:40;24.20;99.90
35258;DHT22;21385;50.878;8.050;2023-08-20T08:29:07;24.30;99.90
35258;DHT22;21385;50.878;8.050;2023-08-20T08:31:33;24.50;99.90
35258;DHT22;21385;50.878;8.050;2023-08-20T08:33:59;24.50;99.90
35258;DHT22;21385;50.878;8.050;2023-08-20T08:36:25;24.60;99.90
35258;DHT22;21385;50.878;8.050;2023-08-20T08:38:51;24.70;99.90
35258;DHT22;21385;50.878;8.050;2023-08-20T08:41:23;24.80;99.90
35258;DHT22;21385;50.878;8.050;2023-08-20T08:43:50;25.00;99.90
35258;DHT22;21385;50.878;8.050;2023-08-20T08:46:16;25.10;99.90
35258;DHT22;21385;50.878;8.050;2023-08-20T08:48:44;25.30;99.90
35258;DHT22;21385;50.878;8.050;2023-08-20T08:51:14;25.30;99.90
35258;DHT22;21385;50.878;8.050;2023-08-20T08:53:42;25.50;99.90
35258;DHT22;21385;50.878;8.050;2023-08-20T08:56:10;25.60;99.90
35258;DHT22;21385;50.878;8.050;2023-08-20T08:58:36;25.70;99.90
35258;DHT22;21385;50.878;8.050;2023-08-20T09:01:01;25.90;99.90
35258;DHT22;21385;50.878;8.050;2023-08-20T09:03:27;26.00;99.90
35258;DHT22;21385;50.878;8.050;2023-08-20T09:05:58;26.10;99.90
35258;DHT22;21385;50.878;8.050;2023-08-20T09:08:32;26.20;99.90
35258;DHT22;21385;50.878;8.050;2023-08-20T09:11:00;26.30;99.90
35258;DHT22;21385;50.878;8.050;2023-08-20T09:13:33;26.50;99.90
35258;DHT22;21385;50.878;8.050;2023-08-20T09:15:59;26.60;99.90
35258;DHT22;21385;50.878;8.050;2023-08-20T09:18:24;26.80;99.90
35258;DHT22;21385;50.878;8.050;2023-08-20T09:20:50;26.80;99.90
35258;DHT22;21385;50.878;8.050;2023-08-20T09:23:16;26.90;99.90
35258;DHT22;21385;50.878;8.050;2023-08-20T09:25:43;27.00;99.90
35258;DHT22;21385;50.878;8.050;2023-08-20T09:28:08;27.00;99.90
35258;DHT22;21385;50.878;8.050;2023-08-20T09:30:35;27.20;99.90
35258;DHT22;21385;50.878;8.050;2023-08-20T09:33:06;27.40;99.90
35258;DHT22;21385;50.878;8.050;2023-08-20T09:35:32;27.60;99.90
35258;DHT22;21385;50.878;8.050;2023-08-20T09:38:02;27.70;99.90
35258;DHT22;21385;50.878;8.050;2023-08-20T09:40:29;27.90;99.90
35258;DHT22;21385;50.878;8.050;2023-08-20T09:42:54;27.90;99.90
35258;DHT22;21385;50.878;8.050;2023-08-20T09:45:21;28.10;99.90
35258;DHT22;21385;50.878;8.050;2023-08-20T09:47:49;28.10;99.90
35258;DHT22;21385;50.878;8.050;2023-08-20T09:50:17;28.20;99.90
35258;DHT22;21385;50.878;8.050;2023-08-20T09:55:27;28.40;99.90
35258;DHT22;21385;50.878;8.050;2023-08-20T09:57:53;28.50;99.90
35258;DHT22;21385;50.878;8.050;2023-08-20T10:00:20;28.70;99.90
35258;DHT22;21385;50.878;8.050;2023-08-20T10:02:46;28.80;99.90
35258;DHT22;21385;50.878;8.050;2023-08-20T10:05:13;29.00;99.90
35258;DHT22;21385;50.878;8.050;2023-08-20T10:07:42;29.20;99.90
35258;DHT22;21385;50.878;8.050;2023-08-20T10:10:09;29.30;99.90
35258;DHT22;21385;50.878;8.050;2023-08-20T10:12:37;29.40;99.90
35258;DHT22;21385;50.878;8.050;2023-08-20T10:20:02;29.60;98.70
35258;DHT22;21385;50.878;8.050;2023-08-20T10:22:42;29.40;99.50
35258;DHT22;21385;50.878;8.050;2023-08-20T10:25:12;29.10;99.50
35258;DHT22;21385;50.878;8.050;2023-08-20T10:27:39;29.10;99.90
35258;DHT22;21385;50.878;8.050;2023-08-20T10:30:10;29.30;99.90
35258;DHT22;21385;50.878;8.050;2023-08-20T10:32:52;29.40;99.90
35258;DHT22;21385;50.878;8.050;2023-08-20T10:35:26;29.50;99.40
35258;DHT22;21385;50.878;8.050;2023-08-20T10:38:12;29.60;99.30
35258;DHT22;21385;50.878;8.050;2023-08-20T10:40:55;29.80;99.10
35258;DHT22;21385;50.878;8.050;2023-08-20T10:46:17;29.80;97.70
35258;DHT22;21385;50.878;8.050;2023-08-20T10:48:54;29.90;98.00
35258;DHT22;21385;50.878;8.050;2023-08-20T10:51:33;30.10;97.70
35258;DHT22;21385;50.878;8.050;2023-08-20T10:54:07;30.10;98.40
35258;DHT22;21385;50.878;8.050;2023-08-20T10:59:09;30.30;97.00
35258;DHT22;21385;50.878;8.050;2023-08-20T11:01:38;30.50;96.10
35258;DHT22;21385;50.878;8.050;2023-08-20T11:04:04;30.60;95.80
35258;DHT22;21385;50.878;8.050;2023-08-20T11:06:33;30.50;96.50
35258;DHT22;21385;50.878;8.050;2023-08-20T11:08:59;30.40;97.00
35258;DHT22;21385;50.878;8.050;2023-08-20T11:11:25;30.50;97.00
35258;DHT22;21385;50.878;8.050;2023-08-20T11:13:51;30.70;95.50
35258;DHT22;21385;50.878;8.050;2023-08-20T11:16:17;30.80;95.60
35258;DHT22;21385;50.878;8.050;2023-08-20T11:18:43;30.90;94.80
35258;DHT22;21385;50.878;8.050;2023-08-20T11:21:09;31.00;94.70
35258;DHT22;21385;50.878;8.050;2023-08-20T11:23:35;31.10;95.60
35258;DHT22;21385;50.878;8.050;2023-08-20T11:26:01;31.20;94.70
35258;DHT22;21385;50.878;8.050;2023-08-20T11:28:28;31.20;95.40
35258;DHT22;21385;50.878;8.050;2023-08-20T11:30:54;31.40;94.20
35258;DHT22;21385;50.878;8.050;2023-08-20T11:33:21;31.50;92.70
35258;DHT22;21385;50.878;8.050;2023-08-20T11:35:47;31.50;94.30
35258;DHT22;21385;50.878;8.050;2023-08-20T11:40:39;32.30;92.60
35258;DHT22;21385;50.878;8.050;2023-08-20T11:43:05;32.30;93.30
35258;DHT22;21385;50.878;8.050;2023-08-20T11:45:31;32.60;92.60
35258;DHT22;21385;50.878;8.050;2023-08-20T11:47:58;32.60;91.80
35258;DHT22;21385;50.878;8.050;2023-08-20T11:50:24;32.30;91.80
35258;DHT22;21385;50.878;8.050;2023-08-20T11:52:52;32.00;92.40
35258;DHT22;21385;50.878;8.050;2023-08-20T11:55:22;31.70;93.30
35258;DHT22;21385;50.878;8.050;2023-08-20T11:57:52;31.50;93.20
35258;DHT22;21385;50.878;8.050;2023-08-20T12:00:31;31.30;93.70
35258;DHT22;21385;50.878;8.050;2023-08-20T12:02:58;31.30;95.20
35258;DHT22;21385;50.878;8.050;2023-08-20T12:05:27;31.30;94.20
35258;DHT22;21385;50.878;8.050;2023-08-20T12:08:03;31.30;94.30
35258;DHT22;21385;50.878;8.050;2023-08-20T12:10:30;31.40;94.10
35258;DHT22;21385;50.878;8.050;2023-08-20T12:12:57;31.50;93.80
35258;DHT22;21385;50.878;8.050;2023-08-20T12:15:23;31.50;93.70
35258;DHT22;21385;50.878;8.050;2023-08-20T12:20:27;31.30;93.60
35258;DHT22;21385;50.878;8.050;2023-08-20T12:22:53;31.30;94.00
35258;DHT22;21385;50.878;8.050;2023-08-20T12:25:19;31.30;93.80
35258;DHT22;21385;50.878;8.050;2023-08-20T12:27:44;31.40;93.50
35258;DHT22;21385;50.878;8.050;2023-08-20T12:30:11;31.40;93.90
35258;DHT22;21385;50.878;8.050;2023-08-20T12:32:36;31.50;94.40
35258;DHT22;21385;50.878;8.050;2023-08-20T12:35:02;31.70;94.90
35258;DHT22;21385;50.878;8.050;2023-08-20T12:37:28;32.00;94.00
35258;DHT22;21385;50.878;8.050;2023-08-20T12:39:53;32.30;92.30
35258;DHT22;21385;50.878;8.050;2023-08-20T12:42:19;32.60;92.50
35258;DHT22;21385;50.878;8.050;2023-08-20T12:44:45;32.90;91.10
35258;DHT22;21385;50.878;8.050;2023-08-20T12:47:10;33.40;90.80
35258;DHT22;21385;50.878;8.050;2023-08-20T12:49:36;33.80;91.10
35258;DHT22;21385;50.878;8.050;2023-08-20T12:52:02;34.20;89.10
35258;DHT22;21385;50.878;8.050;2023-08-20T12:54:28;34.30;81.70
35258;DHT22;21385;50.878;8.050;2023-08-20T12:56:54;34.00;80.20
35258;DHT22;21385;50.878;8.050;2023-08-20T12:59:20;33.70;83.30
35258;DHT22;21385;50.878;8.050;2023-08-20T13:01:46;33.50;84.80
35258;DHT22;21385;50.878;8.050;2023-08-20T13:04:12;33.30;85.50
35258;DHT22;21385;50.878;8.050;2023-08-20T13:06:38;33.00;82.40
35258;DHT22;21385;50.878;8.050;2023-08-20T13:09:05;32.70;82.80
35258;DHT22;21385;50.878;8.050;2023-08-20T13:11:32;32.30;85.40
35258;DHT22;21385;50.878;8.050;2023-08-20T13:13:58;32.00;86.90
35258;DHT22;21385;50.878;8.050;2023-08-20T13:16:24;31.80;88.90
35258;DHT22;21385;50.878;8.050;2023-08-20T13:18:50;31.80;90.40
35258;DHT22;21385;50.878;8.050;2023-08-20T13:21:15;31.90;90.90
35258;DHT22;21385;50.878;8.050;2023-08-20T13:23:41;32.10;90.10
35258;DHT22;21385;50.878;8.050;2023-08-20T13:26:07;32.10;88.40
35258;DHT22;21385;50.878;8.050;2023-08-20T13:28:32;32.30;90.40
35258;DHT22;21385;50.878;8.050;2023-08-20T13:30:58;32.30;87.80
35258;DHT22;21385;50.878;8.050;2023-08-20T13:33:24;32.60;86.80
35258;DHT22;21385;50.878;8.050;2023-08-20T13:35:49;32.90;88.80
35258;DHT22;21385;50.878;8.050;2023-08-20T13:38:15;33.20;88.10
35258;DHT22;21385;50.878;8.050;2023-08-20T13:40:40;33.40;85.60
35258;DHT22;21385;50.878;8.050;2023-08-20T13:43:06;33.40;84.90
35258;DHT22;21385;50.878;8.050;2023-08-20T13:45:32;33.40;87.40
35258;DHT22;21385;50.878;8.050;2023-08-20T13:47:57;33.40;88.00
35258;DHT22;21385;50.878;8.050;2023-08-20T13:50:23;33.60;86.00
35258;DHT22;21385;50.878;8.050;2023-08-20T13:52:48;33.90;84.80
35258;DHT22;21385;50.878;8.050;2023-08-20T13:55:14;34.20;85.10
35258;DHT22;21385;50.878;8.050;2023-08-20T13:57:40;34.20;80.60
35258;DHT22;21385;50.878;8.050;2023-08-20T14:00:06;34.40;79.80
35258;DHT22;21385;50.878;8.050;2023-08-20T14:02:37;34.40;79.80
35258;DHT22;21385;50.878;8.050;2023-08-20T14:05:03;34.50;80.90
35258;DHT22;21385;50.878;8.050;2023-08-20T14:07:32;34.70;77.90
35258;DHT22;21385;50.878;8.050;2023-08-20T14:10:01;35.00;79.20
35258;DHT22;21385;50.878;8.050;2023-08-20T14:12:28;35.00;76.40
35258;DHT22;21385;50.878;8.050;2023-08-20T14:14:53;34.70;75.60
35258;DHT22;21385;50.878;8.050;2023-08-20T14:17:19;34.30;77.60
35258;DHT22;21385;50.878;8.050;2023-08-20T14:19:44;34.10;80.40
35258;DHT22;21385;50.878;8.050;2023-08-20T14:22:10;34.20;78.70
35258;DHT22;21385;50.878;8.050;2023-08-20T14:24:35;34.10;76.70
35258;DHT22;21385;50.878;8.050;2023-08-20T14:27:01;34.20;79.40
35258;DHT22;21385;50.878;8.050;2023-08-20T14:29:28;34.30;75.90
35258;DHT22;21385;50.878;8.050;2023-08-20T14:31:53;34.50;77.60
35258;DHT22;21385;50.878;8.050;2023-08-20T14:34:19;34.80;74.70
35258;DHT22;21385;50.878;8.050;2023-08-20T14:36:44;35.00;72.70
35258;DHT22;21385;50.878;8.050;2023-08-20T14:39:10;35.30;73.40
35258;DHT22;21385;50.878;8.050;2023-08-20T14:41:36;35.60;71.30
35258;DHT22;21385;50.878;8.050;2023-08-20T14:44:02;36.00;68.40
35258;DHT22;21385;50.878;8.050;2023-08-20T14:46:28;36.20;69.10
35258;DHT22;21385;50.878;8.050;2023-08-20T14:48:53;36.70;71.00
35258;DHT22;21385;50.878;8.050;2023-08-20T14:51:21;36.80;66.00
35258;DHT22;21385;50.878;8.050;2023-08-20T14:53:46;36.70;66.50
35258;DHT22;21385;50.878;8.050;2023-08-20T14:56:12;36.20;66.50
35258;DHT22;21385;50.878;8.050;2023-08-20T14:58:38;35.80;68.30
35258;DHT22;21385;50.878;8.050;2023-08-20T15:01:03;35.70;69.10
35258;DHT22;21385;50.878;8.050;2023-08-20T15:03:29;35.80;67.90
35258;DHT22;21385;50.878;8.050;2023-08-20T15:05:56;35.70;69.30
35258;DHT22;21385;50.878;8.050;2023-08-20T15:08:22;35.80;67.40
35258;DHT22;21385;50.878;8.050;2023-08-20T15:10:59;36.10;67.50
35258;DHT22;21385;50.878;8.050;2023-08-20T15:13:27;36.30;67.50
35258;DHT22;21385;50.878;8.050;2023-08-20T15:15:53;36.20;65.00
35258;DHT22;21385;50.878;8.050;2023-08-20T15:18:19;35.90;65.00
35258;DHT22;21385;50.878;8.050;2023-08-20T15:20:45;35.80;63.50
35258;DHT22;21385;50.878;8.050;2023-08-20T15:23:11;35.40;65.00
35258;DHT22;21385;50.878;8.050;2023-08-20T15:25:36;35.10;66.80
35258;DHT22;21385;50.878;8.050;2023-08-20T15:28:02;35.10;69.70
35258;DHT22;21385;50.878;8.050;2023-08-20T15:30:29;35.10;68.60
35258;DHT22;21385;50.878;8.050;2023-08-20T15:32:55;35.40;68.50
35258;DHT22;21385;50.878;8.050;2023-08-20T15:35:20;35.60;66.60
35258;DHT22;21385;50.878;8.050;2023-08-20T15:37:46;35.90;67.60
35258;DHT22;21385;50.878;8.050;2023-08-20T15:40:11;36.00;65.80
35258;DHT22;21385;50.878;8.050;2023-08-20T15:42:39;36.10;65.70
35258;DHT22;21385;50.878;8.050;2023-08-20T15:45:05;36.20;65.70
35258;DHT22;21385;50.878;8.050;2023-08-20T15:47:30;36.40;64.50
35258;DHT22;21385;50.878;8.050;2023-08-20T15:49:56;36.60;64.00
35258;DHT22;21385;50.878;8.050;2023-08-20T15:52:22;36.80;63.70
35258;DHT22;21385;50.878;8.050;2023-08-20T15:54:47;37.00;63.40
35258;DHT22;21385;50.878;8.050;2023-08-20T15:57:13;37.10;62.20
35258;DHT22;21385;50.878;8.050;2023-08-20T15:59:38;37.10;61.40
35258;DHT22;21385;50.878;8.050;2023-08-20T16:02:05;37.00;60.20
35258;DHT22;21385;50.878;8.050;2023-08-20T16:04:32;36.90;60.40
35258;DHT22;21385;50.878;8.050;2023-08-20T16:06:58;37.00;61.40
35258;DHT22;21385;50.878;8.050;2023-08-20T16:09:24;37.00;60.40
35258;DHT22;21385;50.878;8.050;2023-08-20T16:14:15;37.30;58.80
35258;DHT22;21385;50.878;8.050;2023-08-20T16:16:41;37.10;58.50
35258;DHT22;21385;50.878;8.050;2023-08-20T16:19:07;36.70;58.10
35258;DHT22;21385;50.878;8.050;2023-08-20T16:21:32;36.40;58.70
35258;DHT22;21385;50.878;8.050;2023-08-20T16:23:58;36.40;59.20
35258;DHT22;21385;50.878;8.050;2023-08-20T16:26:23;36.60;58.90
35258;DHT22;21385;50.878;8.050;2023-08-20T16:28:49;36.40;58.30
35258;DHT22;21385;50.878;8.050;2023-08-20T16:31:15;36.20;60.00
35258;DHT22;21385;50.878;8.050;2023-08-20T16:33:40;36.30;59.80
35258;DHT22;21385;50.878;8.050;2023-08-20T16:36:06;36.20;59.50
35258;DHT22;21385;50.878;8.050;2023-08-20T16:38:31;35.90;60.70
35258;DHT22;21385;50.878;8.050;2023-08-20T16:41:00;35.80;61.90